sensor_id;sensor_type;location;lat;lon;timestamp;pressure;altitude;pressure_sealevel;temperature;humidity
7105;BME280;3594;42.152;24.714;2022-12-07T00:01:09;-23953.72;;;4.91;nan
7105;BME280;3594;42.152;24.714;2022-12-07T00:03:36;-23944.19;;;4.57;nan
7105;BME280;3594;42.152;24.714;2022-12-07T00:06:03;-23941.19;;;4.47;nan
7105;BME280;3594;42.152;24.714;2022-12-07T00:08:30;-23949.72;;;4.77;nan
7105;BME280;3594;42.152;24.714;2022-12-07T00:11:03;-23937.78;;;4.34;nan
7105;BME280;3594;42.152;24.714;2022-12-07T00:13:30;-23945.88;;;4.63;nan
7105;BME280;3594;42.152;24.714;2022-12-07T00:15:55;-23933.22;;;4.18;nan
7105;BME280;3594;42.152;24.714;2022-12-07T00:18:20;-23942.59;;;4.52;nan
7105;BME280;3594;42.152;24.714;2022-12-07T00:20:46;-23934.63;;;4.23;nan
7105;BME280;3594;42.152;24.714;2022-12-07T00:23:11;-23932.94;;;4.17;nan
7105;BME280;3594;42.152;24.714;2022-12-07T00:25:37;-23940.34;;;4.43;nan
7105;BME280;3594;42.152;24.714;2022-12-07T00:28:02;-23929.50;;;4.05;nan
7105;BME280;3594;42.152;24.714;2022-12-07T00:30:28;-23931.34;;;4.12;nan
7105;BME280;3594;42.152;24.714;2022-12-07T00:32:53;-23926.53;;;3.94;nan
7105;BME280;3594;42.152;24.714;2022-12-07T00:35:18;-23935.50;;;4.26;nan
7105;BME280;3594;42.152;24.714;2022-12-07T00:37:44;-23926.66;;;3.95;nan
7105;BME280;3594;42.152;24.714;2022-12-07T00:40:10;-23937.47;;;4.33;nan
7105;BME280;3594;42.152;24.714;2022-12-07T00:42:35;-23936.06;;;4.28;nan
7105;BME280;3594;42.152;24.714;2022-12-07T00:45:01;-23930.78;;;4.10;nan
7105;BME280;3594;42.152;24.714;2022-12-07T00:47:26;-23933.34;;;4.19;nan
7105;BME280;3594;42.152;24.714;2022-12-07T00:49:52;-23931.22;;;4.11;nan
7105;BME280;3594;42.152;24.714;2022-12-07T00:52:17;-23932.78;;;4.17;nan
7105;BME280;3594;42.152;24.714;2022-12-07T00:54:42;-23931.66;;;4.13;nan
7105;BME280;3594;42.152;24.714;2022-12-07T00:57:08;-23932.06;;;4.14;nan
7105;BME280;3594;42.152;24.714;2022-12-07T00:59:33;-23932.50;;;4.16;nan
7105;BME280;3594;42.152;24.714;2022-12-07T01:01:58;-23934.22;;;4.22;nan
7105;BME280;3594;42.152;24.714;2022-12-07T01:04:24;-23926.38;;;3.94;nan
7105;BME280;3594;42.152;24.714;2022-12-07T01:06:49;-23924.66;;;3.88;nan
7105;BME280;3594;42.152;24.714;2022-12-07T01:09:15;-23929.94;;;4.07;nan
7105;BME280;3594;42.152;24.714;2022-12-07T01:11:40;-23923.53;;;3.84;nan
7105;BME280;3594;42.152;24.714;2022-12-07T01:14:06;-23933.63;;;4.20;nan
7105;BME280;3594;42.152;24.714;2022-12-07T01:16:32;-23936.06;;;4.28;nan
7105;BME280;3594;42.152;24.714;2022-12-07T01:18:59;-23934.22;;;4.22;nan
7105;BME280;3594;42.152;24.714;2022-12-07T01:21:30;-23922.53;;;3.80;nan
7105;BME280;3594;42.152;24.714;2022-12-07T01:23:59;-23920.97;;;3.75;nan
7105;BME280;3594;42.152;24.714;2022-12-07T01:26:25;-23931.78;;;4.13;nan
7105;BME280;3594;42.152;24.714;2022-12-07T01:28:51;-23929.94;;;4.07;nan
7105;BME280;3594;42.152;24.714;2022-12-07T01:31:24;-23931.78;;;4.13;nan
7105;BME280;3594;42.152;24.714;2022-12-07T01:33:55;-23932.94;;;4.17;nan
7105;BME280;3594;42.152;24.714;2022-12-07T01:36:32;-23919.41;;;3.69;nan
7105;BME280;3594;42.152;24.714;2022-12-07T01:39:00;-23928.66;;;4.02;nan
7105;BME280;3594;42.152;24.714;2022-12-07T01:41:29;-23933.34;;;4.19;nan
7105;BME280;3594;42.152;24.714;2022-12-07T01:44:24;-23936.50;;;4.30;nan
7105;BME280;3594;42.152;24.714;2022-12-07T01:49:43;-23934.34;;;4.22;nan
7105;BME280;3594;42.152;24.714;2022-12-07T01:54:43;-23929.50;;;4.05;nan
7105;BME280;3594;42.152;24.714;2022-12-07T01:57:10;-23870.75;;;1.97;nan
7105;BME280;3594;42.152;24.714;2022-12-07T01:59:37;-23934.34;;;4.22;nan
7105;BME280;3594;42.152;24.714;2022-12-07T02:02:08;-23935.78;;;4.27;nan
7105;BME280;3594;42.152;24.714;2022-12-07T02:04:36;-23932.06;;;4.14;nan
7105;BME280;3594;42.152;24.714;2022-12-07T02:07:03;-23911.84;;;3.42;nan
7105;BME280;3594;42.152;24.714;2022-12-07T02:09:28;-23934.78;;;4.24;nan
7105;BME280;3594;42.152;24.714;2022-12-07T02:11:54;-23935.50;;;4.26;nan
7105;BME280;3594;42.152;24.714;2022-12-07T02:14:20;-23936.91;;;4.31;nan
7105;BME280;3594;42.152;24.714;2022-12-07T02:28:13;-23929.22;;;4.04;nan
7105;BME280;3594;42.152;24.714;2022-12-07T02:30:47;-23940.75;;;4.45;nan
7105;BME280;3594;42.152;24.714;2022-12-07T02:33:17;-23937.91;;;4.35;nan
7105;BME280;3594;42.152;24.714;2022-12-07T02:35:52;-23921.97;;;3.78;nan
7105;BME280;3594;42.152;24.714;2022-12-07T02:38:29;-23940.19;;;4.43;nan
7105;BME280;3594;42.152;24.714;2022-12-07T02:41:08;-23940.47;;;4.44;nan
7105;BME280;3594;42.152;24.714;2022-12-07T02:43:41;-23946.88;;;4.67;nan
7105;BME280;3594;42.152;24.714;2022-12-07T02:46:11;-23942.91;;;4.53;nan
7105;BME280;3594;42.152;24.714;2022-12-07T02:48:39;-23950.56;;;4.80;nan
7105;BME280;3594;42.152;24.714;2022-12-07T02:51:06;-23940.91;;;4.45;nan
7105;BME280;3594;42.152;24.714;2022-12-07T02:53:45;-23937.06;;;4.32;nan
7105;BME280;3594;42.152;24.714;2022-12-07T02:56:41;-23945.88;;;4.63;nan
7105;BME280;3594;42.152;24.714;2022-12-07T03:13:23;-23945.88;;;4.63;nan
7105;BME280;3594;42.152;24.714;2022-12-07T03:18:44;-23936.06;;;4.28;nan
7105;BME280;3594;42.152;24.714;2022-12-07T03:21:16;-23943.31;;;4.54;nan
7105;BME280;3594;42.152;24.714;2022-12-07T03:23:45;-23952.56;;;4.87;nan
7105;BME280;3594;42.152;24.714;2022-12-07T03:26:14;-23951.28;;;4.82;nan
7105;BME280;3594;42.152;24.714;2022-12-07T03:28:45;-23941.63;;;4.48;nan
7105;BME280;3594;42.152;24.714;2022-12-07T03:31:22;-23950.56;;;4.80;nan
7105;BME280;3594;42.152;24.714;2022-12-07T03:34:04;-23948.59;;;4.73;nan
7105;BME280;3594;42.152;24.714;2022-12-07T03:40:33;-23952.00;;;4.85;nan
7105;BME280;3594;42.152;24.714;2022-12-07T03:42:27;-23950.56;;;4.80;nan
7105;BME280;3594;42.152;24.714;2022-12-07T03:44:53;-23939.19;;;4.39;nan
7105;BME280;3594;42.152;24.714;2022-12-07T03:47:31;-23936.06;;;4.28;nan
7105;BME280;3594;42.152;24.714;2022-12-07T03:52:40;-23945.16;;;4.61;nan
7105;BME280;3594;42.152;24.714;2022-12-07T03:55:41;-23941.31;;;4.47;nan
7105;BME280;3594;42.152;24.714;2022-12-07T03:58:03;-23935.50;;;4.26;nan
7105;BME280;3594;42.152;24.714;2022-12-07T04:00:29;-23932.06;;;4.14;nan
7105;BME280;3594;42.152;24.714;2022-12-07T04:02:56;-23934.63;;;4.23;nan
7105;BME280;3594;42.152;24.714;2022-12-07T04:05:21;-23936.19;;;4.29;nan
7105;BME280;3594;42.152;24.714;2022-12-07T04:07:47;-23937.91;;;4.35;nan
7105;BME280;3594;42.152;24.714;2022-12-07T04:10:13;-23932.50;;;4.16;nan
7105;BME280;3594;42.152;24.714;2022-12-07T04:12:39;-23927.22;;;3.97;nan
7105;BME280;3594;42.152;24.714;2022-12-07T04:15:05;-23935.78;;;4.27;nan
7105;BME280;3594;42.152;24.714;2022-12-07T04:17:30;-23935.34;;;4.26;nan
7105;BME280;3594;42.152;24.714;2022-12-07T04:19:56;-23935.63;;;4.27;nan
7105;BME280;3594;42.152;24.714;2022-12-07T04:22:22;-23924.66;;;3.88;nan
7105;BME280;3594;42.152;24.714;2022-12-07T04:24:47;-23926.09;;;3.93;nan
7105;BME280;3594;42.152;24.714;2022-12-07T04:27:12;-23933.78;;;4.20;nan
7105;BME280;3594;42.152;24.714;2022-12-07T04:29:38;-23931.50;;;4.12;nan
7105;BME280;3594;42.152;24.714;2022-12-07T04:32:03;-23922.97;;;3.82;nan
7105;BME280;3594;42.152;24.714;2022-12-07T04:34:29;-23932.94;;;4.17;nan
7105;BME280;3594;42.152;24.714;2022-12-07T04:36:54;-23926.66;;;3.95;nan
7105;BME280;3594;42.152;24.714;2022-12-07T04:39:24;-23921.97;;;3.78;nan
7105;BME280;3594;42.152;24.714;2022-12-07T04:41:50;-23920.25;;;3.72;nan
7105;BME280;3594;42.152;24.714;2022-12-07T04:44:16;-23927.94;;;3.99;nan
7105;BME280;3594;42.152;24.714;2022-12-07T04:46:42;-23926.81;;;3.95;nan
7105;BME280;3594;42.152;24.714;2022-12-07T04:49:08;-23925.53;;;3.91;nan
7105;BME280;3594;42.152;24.714;2022-12-07T04:51:33;-23920.09;;;3.72;nan
7105;BME280;3594;42.152;24.714;2022-12-07T04:53:59;-23922.66;;;3.81;nan
7105;BME280;3594;42.152;24.714;2022-12-07T04:56:24;-23918.97;;;3.68;nan
7105;BME280;3594;42.152;24.714;2022-12-07T04:58:52;-23920.38;;;3.73;nan
7105;BME280;3594;42.152;24.714;2022-12-07T05:01:18;-23910.84;;;3.39;nan
7105;BME280;3594;42.152;24.714;2022-12-07T05:03:44;-23916.41;;;3.59;nan
7105;BME280;3594;42.152;24.714;2022-12-07T05:06:10;-23908.28;;;3.30;nan
7105;BME280;3594;42.152;24.714;2022-12-07T05:08:36;-23926.09;;;3.93;nan
7105;BME280;3594;42.152;24.714;2022-12-07T05:11:02;-23919.69;;;3.70;nan
7105;BME280;3594;42.152;24.714;2022-12-07T05:13:28;-23914.13;;;3.50;nan
7105;BME280;3594;42.152;24.714;2022-12-07T05:15:53;-23913.84;;;3.49;nan
7105;BME280;3594;42.152;24.714;2022-12-07T05:18:19;-23921.53;;;3.77;nan
7105;BME280;3594;42.152;24.714;2022-12-07T05:20:44;-23905.84;;;3.21;nan
7105;BME280;3594;42.152;24.714;2022-12-07T05:23:10;-23915.25;;;3.54;nan
7105;BME280;3594;42.152;24.714;2022-12-07T05:25:36;-23919.09;;;3.68;nan
7105;BME280;3594;42.152;24.714;2022-12-07T05:28:02;-23908.28;;;3.30;nan
7105;BME280;3594;42.152;24.714;2022-12-07T05:30:27;-23906.44;;;3.23;nan
7105;BME280;3594;42.152;24.714;2022-12-07T05:32:53;-23907.13;;;3.26;nan
7105;BME280;3594;42.152;24.714;2022-12-07T05:35:18;-23918.53;;;3.66;nan
7105;BME280;3594;42.152;24.714;2022-12-07T05:37:44;-23918.53;;;3.66;nan
7105;BME280;3594;42.152;24.714;2022-12-07T05:40:10;-23916.97;;;3.61;nan
7105;BME280;3594;42.152;24.714;2022-12-07T05:42:36;-23921.38;;;3.76;nan
7105;BME280;3594;42.152;24.714;2022-12-07T05:45:01;-23922.25;;;3.79;nan
7105;BME280;3594;42.152;24.714;2022-12-07T05:47:27;-23922.25;;;3.79;nan
7105;BME280;3594;42.152;24.714;2022-12-07T05:49:52;-23918.97;;;3.68;nan
7105;BME280;3594;42.152;24.714;2022-12-07T05:52:18;-23923.66;;;3.84;nan
7105;BME280;3594;42.152;24.714;2022-12-07T05:54:43;-23919.09;;;3.68;nan
7105;BME280;3594;42.152;24.714;2022-12-07T05:57:09;-23923.25;;;3.83;nan
7105;BME280;3594;42.152;24.714;2022-12-07T05:59:34;-23930.78;;;4.10;nan
7105;BME280;3594;42.152;24.714;2022-12-07T06:02:05;-23927.94;;;3.99;nan
7105;BME280;3594;42.152;24.714;2022-12-07T06:04:33;-23928.22;;;4.00;nan
7105;BME280;3594;42.152;24.714;2022-12-07T06:06:59;-23922.53;;;3.80;nan
7105;BME280;3594;42.152;24.714;2022-12-07T06:09:26;-23925.66;;;3.91;nan
7105;BME280;3594;42.152;24.714;2022-12-07T06:11:53;-23930.22;;;4.08;nan
7105;BME280;3594;42.152;24.714;2022-12-07T06:14:37;-23924.66;;;3.88;nan
7105;BME280;3594;42.152;24.714;2022-12-07T06:17:02;-23924.94;;;3.89;nan
7105;BME280;3594;42.152;24.714;2022-12-07T06:19:28;-23922.97;;;3.82;nan
7105;BME280;3594;42.152;24.714;2022-12-07T06:21:57;-23937.47;;;4.33;nan
7105;BME280;3594;42.152;24.714;2022-12-07T06:24:22;-23938.47;;;4.37;nan
7105;BME280;3594;42.152;24.714;2022-12-07T06:26:48;-23939.91;;;4.42;nan
7105;BME280;3594;42.152;24.714;2022-12-07T06:29:14;-23944.31;;;4.58;nan
7105;BME280;3594;42.152;24.714;2022-12-07T06:31:40;-23936.91;;;4.31;nan
7105;BME280;3594;42.152;24.714;2022-12-07T06:34:09;-23948.03;;;4.71;nan
7105;BME280;3594;42.152;24.714;2022-12-07T06:36:34;-23947.03;;;4.67;nan
7105;BME280;3594;42.152;24.714;2022-12-07T06:39:00;-23943.59;;;4.55;nan
7105;BME280;3594;42.152;24.714;2022-12-07T06:41:26;-23940.91;;;4.45;nan
7105;BME280;3594;42.152;24.714;2022-12-07T06:43:51;-23945.59;;;4.62;nan
7105;BME280;3594;42.152;24.714;2022-12-07T06:46:17;-23951.44;;;4.83;nan
7105;BME280;3594;42.152;24.714;2022-12-07T06:48:43;-23952.44;;;4.86;nan
7105;BME280;3594;42.152;24.714;2022-12-07T06:51:09;-23956.13;;;5.00;nan
7105;BME280;3594;42.152;24.714;2022-12-07T06:53:35;-23957.97;;;5.06;nan
7105;BME280;3594;42.152;24.714;2022-12-07T06:56:00;-23950.56;;;4.80;nan
7105;BME280;3594;42.152;24.714;2022-12-07T06:58:26;-23959.13;;;5.10;nan
7105;BME280;3594;42.152;24.714;2022-12-07T07:00:51;-23956.41;;;5.01;nan
7105;BME280;3594;42.152;24.714;2022-12-07T07:03:17;-23960.81;;;5.16;nan
7105;BME280;3594;42.152;24.714;2022-12-07T07:05:43;-23963.94;;;5.27;nan
7105;BME280;3594;42.152;24.714;2022-12-07T07:08:09;-23975.47;;;5.68;nan
7105;BME280;3594;42.152;24.714;2022-12-07T07:10:34;-23978.59;;;5.79;nan
7105;BME280;3594;42.152;24.714;2022-12-07T07:13:00;-23975.75;;;5.69;nan
7105;BME280;3594;42.152;24.714;2022-12-07T07:15:26;-23985.69;;;6.05;nan
7105;BME280;3594;42.152;24.714;2022-12-07T07:17:51;-23982.28;;;5.93;nan
7105;BME280;3594;42.152;24.714;2022-12-07T07:20:17;-23979.88;;;5.84;nan
7105;BME280;3594;42.152;24.714;2022-12-07T07:22:42;-23994.34;;;6.36;nan
7105;BME280;3594;42.152;24.714;2022-12-07T07:25:08;-23992.09;;;6.28;nan
7105;BME280;3594;42.152;24.714;2022-12-07T07:27:33;-23991.94;;;6.27;nan
7105;BME280;3594;42.152;24.714;2022-12-07T07:29:58;-23999.91;;;6.55;nan
7105;BME280;3594;42.152;24.714;2022-12-07T07:32:24;-23998.91;;;6.52;nan
7105;BME280;3594;42.152;24.714;2022-12-07T07:34:49;-24007.69;;;6.83;nan
7105;BME280;3594;42.152;24.714;2022-12-07T07:37:15;-23998.91;;;6.52;nan
7105;BME280;3594;42.152;24.714;2022-12-07T07:39:40;-23998.19;;;6.49;nan
7105;BME280;3594;42.152;24.714;2022-12-07T07:42:06;-23992.09;;;6.28;nan
7105;BME280;3594;42.152;24.714;2022-12-07T07:44:35;-24000.59;;;6.58;nan
7105;BME280;3594;42.152;24.714;2022-12-07T07:47:01;-24007.13;;;6.81;nan
7105;BME280;3594;42.152;24.714;2022-12-07T07:49:26;-24000.88;;;6.59;nan
7105;BME280;3594;42.152;24.714;2022-12-07T07:51:52;-24002.03;;;6.63;nan
7105;BME280;3594;42.152;24.714;2022-12-07T07:54:17;-24013.09;;;7.02;nan
7105;BME280;3594;42.152;24.714;2022-12-07T07:56:43;-24009.69;;;6.90;nan
7105;BME280;3594;42.152;24.714;2022-12-07T07:59:08;-24016.50;;;7.15;nan
7105;BME280;3594;42.152;24.714;2022-12-07T08:01:34;-24028.69;;;7.58;nan
7105;BME280;3594;42.152;24.714;2022-12-07T08:03:59;-24021.03;;;7.31;nan
7105;BME280;3594;42.152;24.714;2022-12-07T08:06:25;-24023.88;;;7.41;nan
7105;BME280;3594;42.152;24.714;2022-12-07T08:08:50;-24019.19;;;7.24;nan
7105;BME280;3594;42.152;24.714;2022-12-07T08:11:16;-24032.38;;;7.71;nan
7105;BME280;3594;42.152;24.714;2022-12-07T08:13:41;-24036.47;;;7.86;nan
7105;BME280;3594;42.152;24.714;2022-12-07T08:16:09;-24048.38;;;8.28;nan
7105;BME280;3594;42.152;24.714;2022-12-07T08:18:36;-24045.13;;;8.17;nan
7105;BME280;3594;42.152;24.714;2022-12-07T08:21:03;-24054.59;;;8.51;nan
7105;BME280;3594;42.152;24.714;2022-12-07T08:23:31;-24046.69;;;8.22;nan
7105;BME280;3594;42.152;24.714;2022-12-07T08:26:04;-24055.03;;;8.52;nan
7105;BME280;3594;42.152;24.714;2022-12-07T08:28:30;-24049.50;;;8.32;nan
7105;BME280;3594;42.152;24.714;2022-12-07T08:31:00;-24065.78;;;8.91;nan
7105;BME280;3594;42.152;24.714;2022-12-07T08:33:26;-24060.69;;;8.72;nan
7105;BME280;3594;42.152;24.714;2022-12-07T08:35:52;-24072.00;;;9.13;nan
7105;BME280;3594;42.152;24.714;2022-12-07T08:38:17;-24081.63;;;9.47;nan
7105;BME280;3594;42.152;24.714;2022-12-07T08:40:43;-24076.81;;;9.30;nan
7105;BME280;3594;42.152;24.714;2022-12-07T08:43:08;-24070.16;;;9.06;nan
7105;BME280;3594;42.152;24.714;2022-12-07T08:45:33;-24081.63;;;9.47;nan
7105;BME280;3594;42.152;24.714;2022-12-07T08:48:06;-24099.69;;;10.12;nan
7105;BME280;3594;42.152;24.714;2022-12-07T08:50:34;-24104.06;;;10.28;nan
7105;BME280;3594;42.152;24.714;2022-12-07T08:53:02;-24107.88;;;10.41;nan
7105;BME280;3594;42.152;24.714;2022-12-07T08:55:29;-24105.91;;;10.34;nan
7105;BME280;3594;42.152;24.714;2022-12-07T08:57:57;-24110.44;;;10.50;nan
7105;BME280;3594;42.152;24.714;2022-12-07T09:00:23;-24115.66;;;10.69;nan
7105;BME280;3594;42.152;24.714;2022-12-07T09:02:49;-24117.47;;;10.76;nan
7105;BME280;3594;42.152;24.714;2022-12-07T09:05:14;-24123.84;;;10.98;nan
7105;BME280;3594;42.152;24.714;2022-12-07T09:07:40;-24123.41;;;10.97;nan
7105;BME280;3594;42.152;24.714;2022-12-07T09:10:07;-24130.19;;;11.21;nan
7105;BME280;3594;42.152;24.714;2022-12-07T09:12:33;-24127.63;;;11.12;nan
7105;BME280;3594;42.152;24.714;2022-12-07T09:14:58;-24136.09;;;11.42;nan
7105;BME280;3594;42.152;24.714;2022-12-07T09:17:25;-24037.19;;;7.88;nan
7105;BME280;3594;42.152;24.714;2022-12-07T09:19:51;-24125.09;;;11.03;nan
7105;BME280;3594;42.152;24.714;2022-12-07T09:22:16;-24125.09;;;11.03;nan
7105;BME280;3594;42.152;24.714;2022-12-07T09:24:42;-24094.91;;;9.95;nan
7105;BME280;3594;42.152;24.714;2022-12-07T09:27:08;-24119.75;;;10.84;nan
7105;BME280;3594;42.152;24.714;2022-12-07T09:29:33;-24131.16;;;11.25;nan
7105;BME280;3594;42.152;24.714;2022-12-07T09:31:59;-24135.09;;;11.39;nan
7105;BME280;3594;42.152;24.714;2022-12-07T09:34:24;-24135.38;;;11.40;nan
7105;BME280;3594;42.152;24.714;2022-12-07T09:36:51;-24139.63;;;11.55;nan
7105;BME280;3594;42.152;24.714;2022-12-07T09:39:17;-24144.56;;;11.73;nan
7105;BME280;3594;42.152;24.714;2022-12-07T09:41:44;-24143.97;;;11.71;nan
7105;BME280;3594;42.152;24.714;2022-12-07T09:44:12;-24121.72;;;10.91;nan
7105;BME280;3594;42.152;24.714;2022-12-07T09:46:41;-24127.91;;;11.13;nan
7105;BME280;3594;42.152;24.714;2022-12-07T09:49:13;-24133.00;;;11.31;nan
7105;BME280;3594;42.152;24.714;2022-12-07T09:51:40;-24133.97;;;11.35;nan
7105;BME280;3594;42.152;24.714;2022-12-07T09:54:05;-24132.56;;;11.30;nan
7105;BME280;3594;42.152;24.714;2022-12-07T09:56:31;-24134.69;;;11.37;nan
7105;BME280;3594;42.152;24.714;2022-12-07T09:59:00;-24139.34;;;11.54;nan
7105;BME280;3594;42.152;24.714;2022-12-07T10:01:31;-24147.09;;;11.82;nan
7105;BME280;3594;42.152;24.714;2022-12-07T10:04:19;-24131.88;;;11.27;nan
7105;BME280;3594;42.152;24.714;2022-12-07T10:06:45;-24152.44;;;12.01;nan
7105;BME280;3594;42.152;24.714;2022-12-07T10:09:12;-24149.91;;;11.92;nan
7105;BME280;3594;42.152;24.714;2022-12-07T10:14:34;-24141.16;;;11.61;nan
7105;BME280;3594;42.152;24.714;2022-12-07T10:17:00;-24126.50;;;11.08;nan
7105;BME280;3594;42.152;24.714;2022-12-07T10:19:32;-24152.00;;;12.00;nan
7105;BME280;3594;42.152;24.714;2022-12-07T10:22:11;-24136.09;;;11.42;nan
7105;BME280;3594;42.152;24.714;2022-12-07T10:24:41;-24137.78;;;11.48;nan
7105;BME280;3594;42.152;24.714;2022-12-07T10:29:51;-24125.81;;;11.05;nan
7105;BME280;3594;42.152;24.714;2022-12-07T10:34:42;-24107.31;;;10.39;nan
7105;BME280;3594;42.152;24.714;2022-12-07T10:39:51;-24125.94;;;11.06;nan
7105;BME280;3594;42.152;24.714;2022-12-07T10:45:13;-24141.88;;;11.63;nan
7105;BME280;3594;42.152;24.714;2022-12-07T10:48:07;-24153.00;;;12.03;nan
7105;BME280;3594;42.152;24.714;2022-12-07T10:53:44;-24165.25;;;12.47;nan
7105;BME280;3594;42.152;24.714;2022-12-07T11:02:35;-24151.88;;;11.99;nan
7105;BME280;3594;42.152;24.714;2022-12-07T11:05:16;-24125.66;;;11.05;nan
7105;BME280;3594;42.152;24.714;2022-12-07T11:07:54;-24169.75;;;12.63;nan
7105;BME280;3594;42.152;24.714;2022-12-07T11:10:29;-24172.41;;;12.73;nan
7105;BME280;3594;42.152;24.714;2022-12-07T11:13:29;-24171.28;;;12.69;nan
7105;BME280;3594;42.152;24.714;2022-12-07T11:16:55;-24160.31;;;12.29;nan
7105;BME280;3594;42.152;24.714;2022-12-07T11:22:04;-24144.41;;;11.72;nan
7105;BME280;3594;42.152;24.714;2022-12-07T11:27:28;-24135.66;;;11.41;nan
7105;BME280;3594;42.152;24.714;2022-12-07T11:30:13;-24121.72;;;10.91;nan
7105;BME280;3594;42.152;24.714;2022-12-07T11:35:33;-24122.41;;;10.93;nan
7105;BME280;3594;42.152;24.714;2022-12-07T11:38:08;-24114.81;;;10.66;nan
7105;BME280;3594;42.152;24.714;2022-12-07T11:40:38;-24108.03;;;10.42;nan
7105;BME280;3594;42.152;24.714;2022-12-07T11:46:13;-24002.16;;;6.63;nan
7105;BME280;3594;42.152;24.714;2022-12-07T11:48:45;-24125.09;;;11.03;nan
7105;BME280;3594;42.152;24.714;2022-12-07T11:51:12;-24130.03;;;11.21;nan
7105;BME280;3594;42.152;24.714;2022-12-07T11:56:13;-24120.44;;;10.86;nan
7105;BME280;3594;42.152;24.714;2022-12-07T11:58:48;-24134.41;;;11.36;nan
7105;BME280;3594;42.152;24.714;2022-12-07T12:03:47;-24134.13;;;11.35;nan
7105;BME280;3594;42.152;24.714;2022-12-07T12:06:14;-24134.13;;;11.35;nan
7105;BME280;3594;42.152;24.714;2022-12-07T12:08:46;-24134.25;;;11.36;nan
7105;BME280;3594;42.152;24.714;2022-12-07T12:19:27;-24145.13;;;11.75;nan
7105;BME280;3594;42.152;24.714;2022-12-07T12:22:06;-24134.41;;;11.36;nan
7105;BME280;3594;42.152;24.714;2022-12-07T12:24:37;-24134.13;;;11.35;nan
7105;BME280;3594;42.152;24.714;2022-12-07T12:27:07;-24131.31;;;11.25;nan
7105;BME280;3594;42.152;24.714;2022-12-07T12:29:39;-24133.56;;;11.33;nan
7105;BME280;3594;42.152;24.714;2022-12-07T12:32:13;-24141.88;;;11.63;nan
7105;BME280;3594;42.152;24.714;2022-12-07T12:35:17;-24138.34;;;11.50;nan
7105;BME280;3594;42.152;24.714;2022-12-07T12:42:54;-24145.13;;;11.75;nan
7105;BME280;3594;42.152;24.714;2022-12-07T12:45:28;-24137.50;;;11.47;nan
7105;BME280;3594;42.152;24.714;2022-12-07T12:47:58;-24142.44;;;11.65;nan
7105;BME280;3594;42.152;24.714;2022-12-07T13:00:44;-24142.84;;;11.67;nan
7105;BME280;3594;42.152;24.714;2022-12-07T13:03:26;-24144.69;;;11.73;nan
7105;BME280;3594;42.152;24.714;2022-12-07T13:06:20;-24147.94;;;11.85;nan
7105;BME280;3594;42.152;24.714;2022-12-07T13:08:59;-24141.72;;;11.63;nan
7105;BME280;3594;42.152;24.714;2022-12-07T13:11:29;-24144.84;;;11.74;nan
7105;BME280;3594;42.152;24.714;2022-12-07T13:17:00;-24138.78;;;11.52;nan
7105;BME280;3594;42.152;24.714;2022-12-07T13:27:22;-24121.44;;;10.90;nan
7105;BME280;3594;42.152;24.714;2022-12-07T13:29:49;-24133.97;;;11.35;nan
7105;BME280;3594;42.152;24.714;2022-12-07T13:32:26;-24133.84;;;11.34;nan
7105;BME280;3594;42.152;24.714;2022-12-07T13:34:52;-24129.47;;;11.19;nan
7105;BME280;3594;42.152;24.714;2022-12-07T13:39:58;-24131.16;;;11.25;nan
7105;BME280;3594;42.152;24.714;2022-12-07T13:42:31;-24134.53;;;11.37;nan
7105;BME280;3594;42.152;24.714;2022-12-07T13:44:58;-24125.94;;;11.06;nan
7105;BME280;3594;42.152;24.714;2022-12-07T13:47:35;-24128.34;;;11.15;nan
7105;BME280;3594;42.152;24.714;2022-12-07T13:50:23;-24102.94;;;10.24;nan
7105;BME280;3594;42.152;24.714;2022-12-07T13:52:49;-24117.06;;;10.74;nan
7105;BME280;3594;42.152;24.714;2022-12-07T13:55:16;-24115.66;;;10.69;nan
7105;BME280;3594;42.152;24.714;2022-12-07T13:57:44;-24115.50;;;10.69;nan
7105;BME280;3594;42.152;24.714;2022-12-07T14:00:20;-24113.97;;;10.63;nan
7105;BME280;3594;42.152;24.714;2022-12-07T14:05:42;-24106.75;;;10.37;nan
7105;BME280;3594;42.152;24.714;2022-12-07T14:10:39;-24105.91;;;10.34;nan
7105;BME280;3594;42.152;24.714;2022-12-07T14:13:34;-24107.88;;;10.41;nan
7105;BME280;3594;42.152;24.714;2022-12-07T14:16:01;-24106.75;;;10.37;nan
7105;BME280;3594;42.152;24.714;2022-12-07T14:18:37;-24096.31;;;10.00;nan
7105;BME280;3594;42.152;24.714;2022-12-07T14:21:06;-24102.81;;;10.23;nan
7105;BME280;3594;42.152;24.714;2022-12-07T14:23:31;-24095.19;;;9.96;nan
7105;BME280;3594;42.152;24.714;2022-12-07T14:26:14;-24102.25;;;10.21;nan
7105;BME280;3594;42.152;24.714;2022-12-07T14:28:41;-24096.16;;;9.99;nan
7105;BME280;3594;42.152;24.714;2022-12-07T14:31:18;-24101.69;;;10.19;nan
7105;BME280;3594;42.152;24.714;2022-12-07T14:33:46;-24098.56;;;10.08;nan
7105;BME280;3594;42.152;24.714;2022-12-07T14:36:13;-24090.94;;;9.81;nan
7105;BME280;3594;42.152;24.714;2022-12-07T14:38:39;-24091.22;;;9.82;nan
7105;BME280;3594;42.152;24.714;2022-12-07T14:41:10;-24097.59;;;10.04;nan
7105;BME280;3594;42.152;24.714;2022-12-07T14:43:56;-24096.44;;;10.00;nan
7105;BME280;3594;42.152;24.714;2022-12-07T14:46:21;-24090.09;;;9.77;nan
7105;BME280;3594;42.152;24.714;2022-12-07T14:48:46;-24083.03;;;9.52;nan
7105;BME280;3594;42.152;24.714;2022-12-07T14:51:12;-24087.84;;;9.69;nan
7105;BME280;3594;42.152;24.714;2022-12-07T14:53:41;-24078.50;;;9.36;nan
7105;BME280;3594;42.152;24.714;2022-12-07T14:56:08;-24081.63;;;9.47;nan
7105;BME280;3594;42.152;24.714;2022-12-07T14:58:33;-24084.16;;;9.56;nan
7105;BME280;3594;42.152;24.714;2022-12-07T15:00:59;-24072.56;;;9.15;nan
7105;BME280;3594;42.152;24.714;2022-12-07T15:03:25;-24079.63;;;9.40;nan
7105;BME280;3594;42.152;24.714;2022-12-07T15:05:50;-24077.38;;;9.32;nan
7105;BME280;3594;42.152;24.714;2022-12-07T15:08:16;-24072.28;;;9.14;nan
7105;BME280;3594;42.152;24.714;2022-12-07T15:10:41;-24066.50;;;8.93;nan
7105;BME280;3594;42.152;24.714;2022-12-07T15:13:07;-24073.13;;;9.17;nan
7105;BME280;3594;42.152;24.714;2022-12-07T15:15:53;-24070.72;;;9.08;nan
7105;BME280;3594;42.152;24.714;2022-12-07T15:18:20;-24057.72;;;8.62;nan
7105;BME280;3594;42.152;24.714;2022-12-07T15:20:45;-24073.28;;;9.17;nan
7105;BME280;3594;42.152;24.714;2022-12-07T15:23:12;-24069.19;;;9.03;nan
7105;BME280;3594;42.152;24.714;2022-12-07T15:25:41;-24055.88;;;8.55;nan
7105;BME280;3594;42.152;24.714;2022-12-07T15:28:07;-24055.75;;;8.55;nan
7105;BME280;3594;42.152;24.714;2022-12-07T15:30:32;-24062.09;;;8.77;nan
7105;BME280;3594;42.152;24.714;2022-12-07T15:32:57;-24047.38;;;8.25;nan
7105;BME280;3594;42.152;24.714;2022-12-07T15:35:23;-24052.91;;;8.45;nan
7105;BME280;3594;42.152;24.714;2022-12-07T15:37:48;-24047.09;;;8.24;nan
7105;BME280;3594;42.152;24.714;2022-12-07T15:40:14;-24048.94;;;8.30;nan